createdAt,value
2018-12-02T00:01:22.315Z,6.86
2018-12-02T00:06:16.826Z,6.92
2018-12-02T00:11:11.394Z,6.75
2018-12-02T00:16:06.340Z,6.82
2018-12-02T00:21:00.876Z,6.85
2018-12-02T00:25:55.588Z,6.83
2018-12-02T00:30:50.146Z,6.91
2018-12-02T00:35:44.795Z,6.93
2018-12-02T00:40:39.423Z,6.97
2018-12-02T00:45:35.508Z,6.96
2018-12-02T00:50:30.090Z,6.86
2018-12-02T00:55:30.571Z,6.91
2018-12-02T01:00:25.213Z,6.99
2018-12-02T01:05:22.247Z,7.02
2018-12-02T01:10:19.107Z,7.03
2018-12-02T01:15:16.426Z,7.10
2018-12-02T01:20:15.943Z,7.26
2018-12-02T01:25:12.013Z,7.14
2018-12-02T01:30:17.761Z,7.14
2018-12-02T01:35:12.886Z,7.11
2018-12-02T01:40:12.324Z,7.10
2018-12-02T01:45:11.140Z,7.13
2018-12-02T01:50:09.476Z,7.16
2018-12-02T01:55:04.531Z,7.12
2018-12-02T01:59:59.287Z,7.15
2018-12-02T02:04:53.930Z,7.16
2018-12-02T02:09:48.455Z,7.24
2018-12-02T02:14:43.206Z,7.35
2018-12-02T02:19:37.773Z,7.38
2018-12-02T02:24:32.462Z,7.48
2018-12-02T02:29:26.994Z,7.64
2018-12-02T02:34:21.620Z,7.78
2018-12-02T02:39:16.195Z,7.89
2018-12-02T02:44:10.785Z,7.96
2018-12-02T02:49:05.719Z,8.03
2018-12-02T02:54:00.211Z,8.10
2018-12-02T02:58:54.770Z,8.21
2018-12-02T03:03:49.291Z,8.26
2018-12-02T03:08:44.279Z,8.40
2018-12-02T03:13:38.858Z,8.49
2018-12-02T03:18:33.361Z,8.53
2018-12-02T03:23:27.894Z,8.57
2018-12-02T03:28:22.326Z,8.64
2018-12-02T03:33:16.809Z,8.68
2018-12-02T03:38:11.312Z,8.69
2018-12-02T03:43:05.861Z,8.70
2018-12-02T03:48:00.528Z,8.92
2018-12-02T03:52:54.973Z,8.98
2018-12-02T03:57:49.495Z,8.84
2018-12-02T04:02:44.200Z,8.86
2018-12-02T04:07:38.738Z,8.89
2018-12-02T04:12:33.283Z,8.90
2018-12-02T04:17:27.773Z,8.95
2018-12-02T04:22:22.246Z,9.02
2018-12-02T04:27:16.713Z,9.14
2018-12-02T04:32:11.222Z,9.19
2018-12-02T04:37:05.777Z,9.09
2018-12-02T04:42:00.246Z,9.11
2018-12-02T04:46:54.707Z,9.08
2018-12-02T04:51:49.198Z,9.06
2018-12-02T04:56:43.836Z,9.14
2018-12-02T05:01:38.306Z,9.19
2018-12-02T05:06:33.101Z,9.29
2018-12-02T05:11:27.570Z,9.23
2018-12-02T05:16:22.038Z,9.24
2018-12-02T05:21:16.526Z,9.25
2018-12-02T05:26:11.008Z,9.44
2018-12-02T05:31:06.079Z,9.47
2018-12-02T05:36:00.595Z,9.47
2018-12-02T05:40:55.402Z,9.28
2018-12-02T05:45:49.971Z,9.12
2018-12-02T05:50:44.507Z,8.96
2018-12-02T05:55:39.161Z,8.85
2018-12-02T06:00:33.670Z,8.75
2018-12-02T06:05:28.172Z,8.67
2018-12-02T06:10:23.794Z,8.68
2018-12-02T06:15:19.774Z,8.59
2018-12-02T06:20:19.810Z,8.54
2018-12-02T06:25:14.424Z,8.56
2018-12-02T06:30:21.193Z,8.53
2018-12-02T06:35:16.901Z,8.57
2018-12-02T06:40:21.729Z,8.66
2018-12-02T06:45:16.274Z,8.64
2018-12-02T06:50:27.862Z,8.64
2018-12-02T06:55:40.058Z,8.62
2018-12-02T07:13:39.515Z,8.67
2018-12-02T07:18:40.014Z,8.50
2018-12-02T07:23:43.342Z,8.44
2018-12-02T07:28:38.089Z,8.47
2018-12-02T07:33:32.762Z,8.34
2018-12-02T07:38:55.846Z,8.31
2018-12-02T07:43:50.390Z,8.34
2018-12-02T07:48:44.919Z,8.46
2018-12-02T07:53:39.415Z,8.48
2018-12-02T07:58:33.952Z,8.47
2018-12-02T08:03:28.442Z,8.66
2018-12-02T08:08:22.956Z,8.60
2018-12-02T08:13:17.587Z,8.56
2018-12-02T08:18:12.117Z,8.63
2018-12-02T08:23:07.565Z,8.65
2018-12-02T08:28:02.374Z,8.76
2018-12-02T08:32:57.390Z,8.68
2018-12-02T08:37:55.275Z,8.69
2018-12-02T08:42:49.838Z,8.63
2018-12-02T08:47:45.057Z,8.64
2018-12-02T08:52:39.719Z,8.77
2018-12-02T08:57:34.652Z,8.75
2018-12-02T09:02:29.126Z,8.61
2018-12-02T09:07:23.587Z,8.70
2018-12-02T09:12:18.148Z,8.73
2018-12-02T09:17:12.718Z,8.63
2018-12-02T09:22:07.540Z,8.57
2018-12-02T09:27:02.174Z,8.42
2018-12-02T09:31:56.727Z,8.31
2018-12-02T09:36:51.615Z,8.18
2018-12-02T09:41:46.435Z,8.30
2018-12-02T09:46:41.116Z,8.20
2018-12-02T09:51:36.180Z,8.10
2018-12-02T09:56:30.928Z,8.07
2018-12-02T10:01:25.473Z,8.01
2018-12-02T10:06:20.868Z,8.01
2018-12-02T10:11:17.123Z,8.12
2018-12-02T10:16:15.673Z,8.00
2018-12-02T10:21:07.107Z,8.06
2018-12-02T10:26:01.572Z,7.86
2018-12-02T10:30:56.054Z,7.92
2018-12-02T10:35:50.625Z,7.97
2018-12-02T10:40:45.543Z,7.98
2018-12-02T10:45:40.139Z,8.10
2018-12-02T10:50:36.429Z,8.11
2018-12-02T10:55:52.226Z,8.11
2018-12-02T11:00:52.340Z,8.21
2018-12-02T11:05:47.179Z,8.24
2018-12-02T11:10:42.285Z,8.20
2018-12-02T11:15:37.454Z,8.28
2018-12-02T11:20:32.115Z,8.29
2018-12-02T11:25:26.951Z,8.42
2018-12-02T11:30:21.694Z,8.40
2018-12-02T11:35:18.871Z,8.41
2018-12-02T11:40:19.592Z,8.42
2018-12-02T11:45:16.902Z,8.56
2018-12-02T11:50:19.017Z,8.68
2018-12-02T11:55:17.395Z,8.69
2018-12-02T12:00:32.403Z,8.77
2018-12-02T12:05:27.626Z,8.88
2018-12-02T12:10:28.352Z,9.01
2018-12-02T12:15:25.023Z,9.08
2018-12-02T12:20:28.293Z,9.20
2018-12-02T12:25:23.187Z,9.31
2018-12-02T12:30:21.370Z,9.38
2018-12-02T12:35:18.304Z,9.38
2018-12-02T12:40:20.987Z,9.33
2018-12-02T12:45:15.971Z,9.47
2018-12-02T12:50:13.121Z,9.40
2018-12-02T12:55:16.567Z,9.50
2018-12-02T13:00:18.747Z,9.44
2018-12-02T13:05:17.867Z,9.46
2018-12-02T13:10:14.464Z,9.62
2018-12-02T13:15:14.777Z,9.65
2018-12-02T13:20:14.226Z,9.66
2018-12-02T13:25:11.350Z,9.69
2018-12-02T13:30:14.718Z,9.65
2018-12-02T13:35:10.778Z,9.75
2018-12-02T13:40:10.801Z,9.76
2018-12-02T13:45:06.914Z,9.75
2018-12-02T13:50:01.711Z,9.84
2018-12-02T13:54:56.634Z,9.94
2018-12-02T13:59:51.309Z,9.92
2018-12-02T14:04:45.966Z,9.87
2018-12-02T14:09:40.659Z,9.84
2018-12-02T14:14:40.723Z,9.86
2018-12-02T14:19:35.623Z,9.77
2018-12-02T14:24:30.212Z,9.91
2018-12-02T14:29:31.086Z,9.95
2018-12-02T14:34:25.832Z,9.89
2018-12-02T14:39:21.140Z,9.99
2018-12-02T14:44:15.704Z,9.95
2018-12-02T14:49:10.359Z,9.91
2018-12-02T14:54:05.026Z,10.02
2018-12-02T14:59:00.426Z,10.01
2018-12-02T15:03:55.205Z,9.95
2018-12-02T15:08:51.820Z,9.98
2018-12-02T15:13:46.362Z,9.93
2018-12-02T15:18:41.039Z,10.02
2018-12-02T15:23:35.779Z,10.21
2018-12-02T15:28:30.416Z,10.27
2018-12-02T15:33:24.948Z,10.22
2018-12-02T15:38:19.528Z,10.20
2018-12-02T15:43:14.126Z,10.32
2018-12-02T15:48:09.066Z,10.31
2018-12-02T15:53:04.030Z,10.30
2018-12-02T15:57:59.768Z,10.40
2018-12-02T16:02:54.385Z,10.34
2018-12-02T16:07:48.992Z,10.16
2018-12-02T16:12:46.439Z,10.09
2018-12-02T16:17:41.095Z,10.04
2018-12-02T16:22:35.820Z,10.04
2018-12-02T16:27:31.219Z,10.07
2018-12-02T16:32:26.047Z,10.09
2018-12-02T16:37:20.555Z,10.15
2018-12-02T16:42:15.111Z,10.23
2018-12-02T16:47:09.672Z,10.29
2018-12-02T16:52:04.299Z,10.13
2018-12-02T16:57:00.082Z,10.12
2018-12-02T17:01:58.683Z,10.12
2018-12-02T17:06:54.951Z,10.07
2018-12-02T17:11:49.536Z,10.03
2018-12-02T17:16:44.142Z,10.02
2018-12-02T17:21:38.867Z,10.06
2018-12-02T17:26:33.418Z,10.07
2018-12-02T17:31:35.903Z,10.08
2018-12-02T17:36:31.826Z,10.01
2018-12-02T17:41:25.158Z,9.98
2018-12-02T17:46:19.720Z,10.00
2018-12-02T17:51:14.258Z,9.91
2018-12-02T17:56:08.835Z,10.04
2018-12-02T18:01:03.577Z,10.10
2018-12-02T18:05:58.509Z,10.23
2018-12-02T18:10:53.544Z,10.22
2018-12-02T18:15:48.311Z,10.37
2018-12-02T18:20:43.587Z,10.32
2018-12-02T18:25:38.270Z,10.24
2018-12-02T18:30:32.978Z,10.09
2018-12-02T18:35:52.055Z,10.03
2018-12-02T18:41:13.438Z,10.02
2018-12-02T18:46:08.588Z,9.93
2018-12-02T18:51:03.905Z,9.87
2018-12-02T18:55:58.724Z,9.82
2018-12-02T19:00:54.155Z,9.64
2018-12-02T19:05:50.723Z,9.56
2018-12-02T19:10:48.622Z,9.39
2018-12-02T19:15:43.424Z,9.24
2018-12-02T19:20:38.120Z,9.22
2018-12-02T19:25:33.793Z,9.16
2018-12-02T19:30:33.045Z,9.19
2018-12-02T19:35:34.974Z,9.26
2018-12-02T19:40:29.841Z,9.37
2018-12-02T19:45:24.819Z,9.24
2018-12-02T19:50:20.504Z,9.17
2018-12-02T19:55:15.189Z,9.05
2018-12-02T20:00:19.334Z,9.02
2018-12-02T20:05:13.985Z,9.13
2018-12-02T20:10:20.145Z,9.28
2018-12-02T20:15:16.423Z,9.39
2018-12-02T20:20:20.385Z,9.47
2018-12-02T20:25:15.407Z,9.62
2018-12-02T20:30:15.435Z,9.63
2018-12-02T20:35:11.834Z,9.54
2018-12-02T20:40:12.186Z,9.38
2018-12-02T20:45:09.391Z,9.33
2018-12-02T20:50:04.172Z,9.41
2018-12-02T20:54:58.840Z,9.44
2018-12-02T20:59:53.409Z,9.62
2018-12-02T21:04:48.021Z,9.80
2018-12-02T21:09:42.953Z,9.96
2018-12-02T21:14:37.595Z,10.11
2018-12-02T21:19:35.062Z,10.12
2018-12-02T21:24:30.071Z,9.98
2018-12-02T21:29:26.120Z,9.92
2018-12-02T21:34:20.992Z,9.90
2018-12-02T21:39:16.316Z,9.77
2018-12-02T21:44:11.066Z,9.67
2018-12-02T21:49:06.562Z,9.67
2018-12-02T21:54:01.702Z,9.72
2018-12-02T21:58:56.507Z,9.63
2018-12-02T22:03:51.250Z,9.71
2018-12-02T22:08:46.080Z,9.91
2018-12-02T22:13:43.619Z,10.15
2018-12-02T22:18:36.469Z,10.31
2018-12-02T22:23:32.108Z,10.47
2018-12-02T22:28:27.461Z,10.57
2018-12-02T22:33:23.343Z,10.60
2018-12-02T22:38:19.055Z,10.55
2018-12-02T22:43:14.940Z,10.52
2018-12-02T22:48:11.017Z,10.59
2018-12-02T22:53:09.380Z,10.59
2018-12-02T22:58:04.941Z,10.60
2018-12-02T23:03:06.719Z,10.53
2018-12-02T23:08:02.882Z,10.63
2018-12-02T23:12:58.173Z,10.62
2018-12-02T23:17:53.307Z,10.62
2018-12-02T23:22:48.348Z,10.63
2018-12-02T23:27:43.512Z,10.68
2018-12-02T23:32:40.351Z,10.71
2018-12-02T23:37:35.407Z,10.77
2018-12-02T23:42:30.728Z,10.82
2018-12-02T23:47:25.728Z,10.85
2018-12-02T23:52:20.655Z,10.79
2018-12-02T23:57:18.479Z,10.83
